createdAt,value
2019-03-01T00:01:07.571Z,16.70
2019-03-01T00:03:38.411Z,17.13
2019-03-01T00:06:14.422Z,17.48
2019-03-01T00:09:33.334Z,16.93
2019-03-01T00:12:52.437Z,17.92
2019-03-01T00:16:15.683Z,17.67
2019-03-01T00:19:06.317Z,18.13
2019-03-01T00:22:13.651Z,18.52
2019-03-01T00:25:07.605Z,19.17
2019-03-01T00:28:24.492Z,21.00
2019-03-01T00:31:21.571Z,22.30
2019-03-01T00:34:29.769Z,23.10
2019-03-01T00:37:23.713Z,23.53
2019-03-01T00:40:24.620Z,24.50
2019-03-01T00:43:21.698Z,23.12
2019-03-01T00:45:51.489Z,22.97
2019-03-01T00:48:23.330Z,23.60
2019-03-01T00:50:55.952Z,22.00
2019-03-01T00:53:25.522Z,23.67
2019-03-01T00:55:54.953Z,25.03
2019-03-01T00:58:26.544Z,25.77
2019-03-01T01:00:58.962Z,25.77
2019-03-01T01:03:29.369Z,27.43
2019-03-01T01:05:58.791Z,28.63
2019-03-01T01:08:28.239Z,31.23
2019-03-01T01:10:59.181Z,29.50
2019-03-01T01:13:28.558Z,28.73
2019-03-01T01:15:59.187Z,28.53
2019-03-01T01:18:29.072Z,31.93
2019-03-01T01:21:00.272Z,30.17
2019-03-01T01:23:30.987Z,30.52
2019-03-01T01:26:01.441Z,30.40
2019-03-01T01:28:30.969Z,29.87
2019-03-01T01:31:00.551Z,29.02
2019-03-01T01:33:31.731Z,28.70
2019-03-01T01:36:01.128Z,29.67
2019-03-01T01:38:30.569Z,29.57
2019-03-01T01:41:01.745Z,29.53
2019-03-01T01:43:33.792Z,28.70
2019-03-01T01:46:03.490Z,29.12
2019-03-01T01:48:32.944Z,29.97
2019-03-01T01:51:02.353Z,28.90
2019-03-01T01:53:31.964Z,28.45
2019-03-01T01:56:01.358Z,28.40
2019-03-01T01:58:30.783Z,28.90
2019-03-01T02:01:00.472Z,28.42
2019-03-01T02:03:29.909Z,28.80
2019-03-01T02:05:59.347Z,28.67
2019-03-01T02:08:28.775Z,28.03
2019-03-01T02:10:58.468Z,27.57
2019-03-01T02:13:29.013Z,27.70
2019-03-01T02:16:00.305Z,27.57
2019-03-01T02:18:29.695Z,27.33
2019-03-01T02:20:59.348Z,29.03
2019-03-01T02:23:29.030Z,29.23
2019-03-01T02:25:58.443Z,29.77
2019-03-01T02:28:29.652Z,28.73
2019-03-01T02:30:59.912Z,29.97
2019-03-01T02:33:29.423Z,29.18
2019-03-01T02:35:59.946Z,30.20
2019-03-01T02:38:29.558Z,27.40
2019-03-01T02:40:58.962Z,28.50
2019-03-01T02:43:28.359Z,30.73
2019-03-01T02:45:59.824Z,28.90
2019-03-01T02:48:29.228Z,29.52
2019-03-01T02:50:58.623Z,29.57
2019-03-01T02:53:29.083Z,29.30
2019-03-01T02:55:58.463Z,29.77
2019-03-01T02:58:27.915Z,28.13
2019-03-01T03:00:58.412Z,27.37
2019-03-01T03:03:28.980Z,28.13
2019-03-01T03:06:27.232Z,28.00
2019-03-01T03:08:56.642Z,29.37
2019-03-01T03:11:26.047Z,29.15
2019-03-01T03:13:55.747Z,30.07
2019-03-01T03:16:25.240Z,30.43
2019-03-01T03:18:55.253Z,31.07
2019-03-01T03:21:26.849Z,30.80
2019-03-01T03:23:56.708Z,31.10
2019-03-01T03:26:26.149Z,31.37
2019-03-01T03:28:55.982Z,31.33
2019-03-01T03:31:25.482Z,30.73
2019-03-01T03:33:56.914Z,31.80
2019-03-01T03:36:28.203Z,31.73
2019-03-01T03:38:57.642Z,32.17
2019-03-01T03:41:29.738Z,32.03
2019-03-01T03:44:00.400Z,31.97
2019-03-01T03:46:29.877Z,32.20
2019-03-01T03:48:59.242Z,34.75
2019-03-01T03:51:31.680Z,34.00
2019-03-01T03:54:01.105Z,33.75
2019-03-01T03:56:32.959Z,34.87
2019-03-01T03:59:03.686Z,34.90
2019-03-01T04:01:34.132Z,34.88
2019-03-01T04:04:04.311Z,36.67
2019-03-01T04:06:33.952Z,35.43
2019-03-01T04:09:05.275Z,34.55
2019-03-01T04:11:35.778Z,34.03
2019-03-01T04:14:05.565Z,34.07
2019-03-01T04:16:34.994Z,34.73
2019-03-01T04:19:06.280Z,31.70
2019-03-01T04:21:36.314Z,30.52
2019-03-01T04:24:05.734Z,30.12
2019-03-01T04:26:35.486Z,30.43
2019-03-01T04:29:05.262Z,29.77
2019-03-01T04:31:35.686Z,30.10
2019-03-01T04:34:06.190Z,30.23
2019-03-01T04:36:35.833Z,30.10
2019-03-01T04:39:06.775Z,30.52
2019-03-01T04:41:36.184Z,30.43
2019-03-01T04:44:06.803Z,28.37
2019-03-01T04:46:36.265Z,25.55
2019-03-01T04:49:08.484Z,23.50
2019-03-01T04:51:40.272Z,23.50
2019-03-01T04:54:10.936Z,22.05
2019-03-01T04:56:40.369Z,24.12
2019-03-01T04:59:09.891Z,22.87
2019-03-01T05:01:39.411Z,23.67
2019-03-01T05:04:08.816Z,21.80
2019-03-01T05:06:38.294Z,22.22
2019-03-01T05:09:08.605Z,21.80
2019-03-01T05:11:38.029Z,21.60
2019-03-01T05:14:07.487Z,20.27
2019-03-01T05:16:36.915Z,21.23
2019-03-01T05:19:06.307Z,19.63
2019-03-01T05:21:35.775Z,22.20
2019-03-01T05:24:05.240Z,22.15
2019-03-01T05:26:34.710Z,20.13
2019-03-01T05:29:05.748Z,20.80
2019-03-01T05:31:35.170Z,21.00
2019-03-01T05:34:06.411Z,20.72
2019-03-01T05:36:36.021Z,21.52
2019-03-01T05:39:08.800Z,21.40
2019-03-01T05:41:39.248Z,22.37
2019-03-01T05:44:08.823Z,20.65
2019-03-01T05:46:38.228Z,20.90
2019-03-01T05:49:07.630Z,20.20
2019-03-01T05:51:37.058Z,20.05
2019-03-01T05:54:07.912Z,18.48
2019-03-01T05:56:37.364Z,19.48
2019-03-01T05:59:18.875Z,18.15
2019-03-01T06:02:28.280Z,17.00
2019-03-01T06:05:01.455Z,17.47
2019-03-01T06:07:58.041Z,15.90
2019-03-01T06:11:00.887Z,15.87
2019-03-01T06:14:18.281Z,15.10
2019-03-01T06:17:14.710Z,15.33
2019-03-01T06:20:02.785Z,14.70
2019-03-01T06:23:00.593Z,15.10
2019-03-01T06:26:19.875Z,14.78
2019-03-01T06:29:30.238Z,14.83
2019-03-01T06:32:34.706Z,13.55
2019-03-01T06:35:26.725Z,13.80
2019-03-01T06:38:56.958Z,13.77
2019-03-01T06:42:06.025Z,13.32
2019-03-01T06:45:16.478Z,13.10
2019-03-01T06:47:49.966Z,13.17
2019-03-01T06:50:32.047Z,13.18
2019-03-01T06:53:01.449Z,13.78
2019-03-01T06:55:37.157Z,13.77
2019-03-01T06:58:07.803Z,14.13
2019-03-01T07:00:49.807Z,14.30
2019-03-01T07:03:13.461Z,14.35
2019-03-01T07:05:42.842Z,13.10
2019-03-01T07:08:12.417Z,12.20
2019-03-01T07:10:43.179Z,12.07
2019-03-01T07:13:14.382Z,12.43
2019-03-01T07:15:43.804Z,11.13
2019-03-01T07:18:13.276Z,12.03
2019-03-01T07:20:42.649Z,12.20
2019-03-01T07:23:15.002Z,12.33
2019-03-01T07:25:44.936Z,10.73
2019-03-01T07:28:14.423Z,10.73
2019-03-01T07:30:43.826Z,11.70
2019-03-01T07:33:13.287Z,12.07
2019-03-01T07:35:43.184Z,12.23
2019-03-01T07:38:12.625Z,11.83
2019-03-01T07:40:42.195Z,12.20
2019-03-01T07:43:11.602Z,11.63
2019-03-01T07:45:43.354Z,11.43
2019-03-01T07:48:12.984Z,11.03
2019-03-01T07:50:42.388Z,9.73
2019-03-01T07:53:11.788Z,8.80
2019-03-01T07:55:41.393Z,7.33
2019-03-01T07:58:10.852Z,5.85
2019-03-01T08:00:42.171Z,5.13
2019-03-01T08:03:11.938Z,6.08
2019-03-01T08:05:44.126Z,5.70
2019-03-01T08:08:13.527Z,5.35
2019-03-01T08:10:43.364Z,4.80
2019-03-01T08:13:14.808Z,5.70
2019-03-01T08:15:45.028Z,5.37
2019-03-01T08:18:16.709Z,5.23
2019-03-01T08:20:46.126Z,5.67
2019-03-01T08:23:17.349Z,5.83
2019-03-01T08:25:46.946Z,6.07
2019-03-01T08:28:18.468Z,5.67
2019-03-01T08:30:47.553Z,5.70
2019-03-01T08:33:17.226Z,5.30
2019-03-01T08:35:46.605Z,5.05
2019-03-01T08:38:16.020Z,5.40
2019-03-01T08:40:46.707Z,5.07
2019-03-01T08:43:17.188Z,4.77
2019-03-01T08:45:46.554Z,4.50
2019-03-01T08:48:16.308Z,5.43
2019-03-01T08:50:47.040Z,5.60
2019-03-01T08:53:17.542Z,5.50
2019-03-01T08:55:48.262Z,5.13
2019-03-01T08:58:17.640Z,5.30
2019-03-01T09:00:47.127Z,5.03
2019-03-01T09:03:26.602Z,5.90
2019-03-01T09:05:57.156Z,5.27
2019-03-01T09:08:29.306Z,4.20
2019-03-01T09:10:59.721Z,3.80
2019-03-01T09:13:30.420Z,3.73
2019-03-01T09:15:59.964Z,4.30
2019-03-01T09:18:29.968Z,3.53
2019-03-01T09:21:05.713Z,3.43
2019-03-01T09:23:34.386Z,3.90
2019-03-01T09:26:05.850Z,4.12
2019-03-01T09:28:39.536Z,4.00
2019-03-01T09:31:08.042Z,4.50
2019-03-01T09:33:38.437Z,4.10
2019-03-01T09:36:21.299Z,5.10
2019-03-01T09:38:49.697Z,4.53
2019-03-01T09:41:19.133Z,4.30
2019-03-01T09:43:48.719Z,4.30
2019-03-01T09:46:20.789Z,4.33
2019-03-01T09:48:50.881Z,4.87
2019-03-01T09:51:20.341Z,5.00
2019-03-01T09:53:49.715Z,4.55
2019-03-01T09:56:19.319Z,4.73
2019-03-01T09:58:48.828Z,4.73
2019-03-01T10:01:19.482Z,4.80
2019-03-01T10:03:49.665Z,4.87
2019-03-01T10:06:20.051Z,5.40
2019-03-01T10:08:50.910Z,5.40
2019-03-01T10:11:22.285Z,5.77
2019-03-01T10:13:51.666Z,5.20
2019-03-01T10:16:21.074Z,5.80
2019-03-01T10:18:50.505Z,5.20
2019-03-01T10:21:21.029Z,5.33
2019-03-01T10:23:50.439Z,5.63
2019-03-01T10:26:19.905Z,6.58
2019-03-01T10:28:51.081Z,5.33
2019-03-01T10:31:20.472Z,5.23
2019-03-01T10:33:50.529Z,5.33
2019-03-01T10:36:19.942Z,5.20
2019-03-01T10:38:49.340Z,5.10
2019-03-01T10:41:18.840Z,5.10
2019-03-01T10:43:48.271Z,4.60
2019-03-01T10:46:17.966Z,4.07
2019-03-01T10:48:47.600Z,3.37
2019-03-01T10:51:17.286Z,3.73
2019-03-01T10:53:47.941Z,3.10
2019-03-01T10:56:18.772Z,3.17
2019-03-01T10:58:49.169Z,3.13
2019-03-01T11:01:18.576Z,3.10
2019-03-01T11:03:48.234Z,2.93
2019-03-01T11:06:17.609Z,2.40
2019-03-01T11:08:47.024Z,3.33
2019-03-01T11:11:16.481Z,2.90
2019-03-01T11:13:45.964Z,2.77
2019-03-01T11:16:16.785Z,2.30
2019-03-01T11:18:47.420Z,2.90
2019-03-01T11:21:17.792Z,2.60
2019-03-01T11:23:47.252Z,2.63
2019-03-01T11:26:18.293Z,2.87
2019-03-01T11:28:47.682Z,2.70
2019-03-01T11:31:17.078Z,2.60
2019-03-01T11:33:47.762Z,2.63
2019-03-01T11:36:17.166Z,2.63
2019-03-01T11:38:46.566Z,2.77
2019-03-01T11:41:17.124Z,3.10
2019-03-01T11:43:46.512Z,2.33
2019-03-01T11:46:16.021Z,2.50
2019-03-01T11:48:47.348Z,3.17
2019-03-01T11:51:18.812Z,2.87
2019-03-01T11:53:48.226Z,2.60
2019-03-01T11:56:17.933Z,3.07
2019-03-01T11:58:48.425Z,2.60
2019-03-01T12:01:19.443Z,3.03
2019-03-01T12:03:48.960Z,3.10
2019-03-01T12:06:19.571Z,3.27
2019-03-01T12:08:49.256Z,3.17
2019-03-01T12:11:19.210Z,2.80
2019-03-01T12:13:48.393Z,3.10
2019-03-01T12:16:18.888Z,2.87
2019-03-01T12:18:48.343Z,3.10
2019-03-01T12:21:17.926Z,3.17
2019-03-01T12:23:47.350Z,3.40
2019-03-01T12:26:17.080Z,3.03
2019-03-01T12:28:47.889Z,3.43
2019-03-01T12:31:17.395Z,2.97
2019-03-01T12:33:47.421Z,2.90
2019-03-01T12:36:20.118Z,2.70
2019-03-01T12:38:49.505Z,2.90
2019-03-01T12:41:18.960Z,2.90
2019-03-01T12:43:48.364Z,2.60
2019-03-01T12:46:17.787Z,3.33
2019-03-01T12:48:48.771Z,3.17
2019-03-01T12:51:18.174Z,2.80
2019-03-01T12:53:47.841Z,3.20
2019-03-01T12:56:19.244Z,3.10
2019-03-01T12:58:50.124Z,2.97
2019-03-01T13:01:19.604Z,3.27
2019-03-01T13:03:49.405Z,3.23
2019-03-01T13:06:18.809Z,3.00
2019-03-01T13:08:51.355Z,3.47
2019-03-01T13:11:19.759Z,3.23
2019-03-01T13:13:49.313Z,3.02
2019-03-01T13:16:18.749Z,3.30
2019-03-01T13:18:51.252Z,3.00
2019-03-01T13:21:20.893Z,3.87
2019-03-01T13:23:52.081Z,3.00
2019-03-01T13:26:21.751Z,3.50
2019-03-01T13:28:51.128Z,3.55
2019-03-01T13:31:23.088Z,3.47
2019-03-01T13:33:52.733Z,3.67
2019-03-01T13:36:23.906Z,3.67
2019-03-01T13:38:53.425Z,3.57
2019-03-01T13:41:25.317Z,3.20
2019-03-01T13:43:54.851Z,3.80
2019-03-01T13:46:26.449Z,4.10
2019-03-01T13:48:56.530Z,3.17
2019-03-01T13:51:26.260Z,4.00
2019-03-01T13:53:56.282Z,3.70
2019-03-01T13:56:26.932Z,3.75
2019-03-01T13:58:56.316Z,3.90
2019-03-01T14:01:27.094Z,3.63
2019-03-01T14:03:59.770Z,3.80
2019-03-01T14:06:28.709Z,3.70
2019-03-01T14:08:59.696Z,3.70
2019-03-01T14:11:29.386Z,3.60
2019-03-01T14:14:00.400Z,3.67
2019-03-01T14:16:30.277Z,3.70
2019-03-01T14:18:59.735Z,3.60
2019-03-01T14:21:29.806Z,3.67
2019-03-01T14:24:00.533Z,3.93
2019-03-01T14:26:30.442Z,3.27
2019-03-01T14:29:00.842Z,3.40
2019-03-01T14:31:31.251Z,3.50
2019-03-01T14:34:00.898Z,3.47
2019-03-01T14:36:30.310Z,3.70
2019-03-01T14:39:03.464Z,3.47
2019-03-01T14:41:35.093Z,3.53
2019-03-01T14:44:03.615Z,3.40
2019-03-01T14:46:34.218Z,3.33
2019-03-01T14:49:03.781Z,3.87
2019-03-01T14:51:35.054Z,3.87
2019-03-01T14:54:07.108Z,3.72
2019-03-01T14:56:39.769Z,3.87
2019-03-01T14:59:34.780Z,3.43
2019-03-01T15:02:32.624Z,3.60
2019-03-01T15:05:05.523Z,3.63
2019-03-01T15:07:33.159Z,3.42
2019-03-01T15:10:02.659Z,3.90
2019-03-01T15:12:32.065Z,4.03
2019-03-01T15:15:03.674Z,4.03
2019-03-01T15:17:33.461Z,3.52
2019-03-01T15:20:04.373Z,3.67
2019-03-01T15:22:33.825Z,4.28
2019-03-01T15:25:03.351Z,3.83
2019-03-01T15:27:33.737Z,3.90
2019-03-01T15:30:10.022Z,3.57
2019-03-01T15:32:39.750Z,4.13
2019-03-01T15:35:09.479Z,3.70
2019-03-01T15:37:38.894Z,3.87
2019-03-01T15:40:08.628Z,4.10
2019-03-01T15:42:38.213Z,3.67
2019-03-01T15:45:08.770Z,8.23
2019-03-01T15:47:38.420Z,4.87
2019-03-01T15:50:09.087Z,4.30
2019-03-01T15:52:39.582Z,3.90
2019-03-01T15:55:11.952Z,3.62
2019-03-01T15:57:40.430Z,4.20
2019-03-01T16:00:11.122Z,3.77
2019-03-01T16:02:40.611Z,3.93
2019-03-01T16:05:12.652Z,4.22
2019-03-01T16:07:43.163Z,3.97
2019-03-01T16:10:12.989Z,4.15
2019-03-01T16:12:43.863Z,4.00
2019-03-01T16:15:13.700Z,4.07
2019-03-01T16:17:43.269Z,3.50
2019-03-01T16:20:13.816Z,4.47
2019-03-01T16:22:43.240Z,3.60
2019-03-01T16:25:17.287Z,3.87
2019-03-01T16:27:45.147Z,3.80
2019-03-01T16:30:17.652Z,3.93
2019-03-01T16:32:50.365Z,3.67
2019-03-01T16:35:18.628Z,3.67
2019-03-01T16:37:52.728Z,3.70
2019-03-01T16:40:23.224Z,3.67
2019-03-01T16:42:54.367Z,3.30
2019-03-01T16:45:24.840Z,3.90
2019-03-01T16:47:54.291Z,4.43
2019-03-01T16:50:23.791Z,3.87
2019-03-01T16:52:54.999Z,4.60
2019-03-01T16:55:27.955Z,3.87
2019-03-01T16:58:06.853Z,4.05
2019-03-01T17:00:29.393Z,3.90
2019-03-01T17:02:59.277Z,3.70
2019-03-01T17:05:28.732Z,4.20
2019-03-01T17:07:59.796Z,4.23
2019-03-01T17:10:31.144Z,3.70
2019-03-01T17:13:00.642Z,3.97
2019-03-01T17:15:30.033Z,3.80
2019-03-01T17:17:59.476Z,4.07
2019-03-01T17:20:30.038Z,4.37
2019-03-01T17:23:02.682Z,3.93
2019-03-01T17:25:30.652Z,4.30
2019-03-01T17:28:00.042Z,3.93
2019-03-01T17:30:29.522Z,4.03
2019-03-01T17:32:59.225Z,3.90
2019-03-01T17:35:28.677Z,4.00
2019-03-01T17:37:58.071Z,4.03
2019-03-01T17:40:29.243Z,4.00
2019-03-01T17:42:58.637Z,4.20
2019-03-01T17:45:28.039Z,4.70
2019-03-01T17:47:57.853Z,4.03
2019-03-01T17:50:27.336Z,4.27
2019-03-01T17:52:57.477Z,3.73
2019-03-01T17:55:27.167Z,4.77
2019-03-01T17:57:57.900Z,4.30
2019-03-01T18:00:32.382Z,4.10
2019-03-01T18:03:02.951Z,3.43
2019-03-01T18:05:32.338Z,4.60
2019-03-01T18:08:03.876Z,4.30
2019-03-01T18:10:34.447Z,3.92
2019-03-01T18:13:03.836Z,4.00
2019-03-01T18:15:33.239Z,3.87
2019-03-01T18:18:02.895Z,4.27
2019-03-01T18:20:34.004Z,4.10
2019-03-01T18:23:06.397Z,3.95
2019-03-01T18:25:37.854Z,4.70
2019-03-01T18:28:08.471Z,3.83
2019-03-01T18:30:39.278Z,3.90
2019-03-01T18:33:08.756Z,3.70
2019-03-01T18:35:38.289Z,3.75
2019-03-01T18:38:07.669Z,4.80
2019-03-01T18:40:37.275Z,4.47
2019-03-01T18:43:09.770Z,4.10
2019-03-01T18:45:38.445Z,4.30
2019-03-01T18:48:10.174Z,4.00
2019-03-01T18:50:40.612Z,4.83
2019-03-01T18:53:11.462Z,3.62
2019-03-01T18:55:42.801Z,3.93
2019-03-01T18:58:14.135Z,3.35
2019-03-01T19:00:45.329Z,3.87
2019-03-01T19:03:15.105Z,3.80
2019-03-01T19:05:45.584Z,4.10
2019-03-01T19:08:16.190Z,4.00
2019-03-01T19:10:53.931Z,3.90
2019-03-01T19:13:20.678Z,4.00
2019-03-01T19:15:54.355Z,4.40
2019-03-01T19:18:22.069Z,3.40
2019-03-01T19:20:51.677Z,4.33
2019-03-01T19:23:22.531Z,3.77
2019-03-01T19:25:52.045Z,3.70
2019-03-01T19:28:23.657Z,3.53
2019-03-01T19:30:54.650Z,3.93
2019-03-01T19:33:24.270Z,3.97
2019-03-01T19:35:53.827Z,4.30
2019-03-01T19:38:25.147Z,3.70
2019-03-01T19:40:57.905Z,4.03
2019-03-01T19:43:27.391Z,3.90
2019-03-01T19:45:56.900Z,4.23
2019-03-01T19:48:28.471Z,4.53
2019-03-01T19:50:58.421Z,3.90
2019-03-01T19:53:29.046Z,3.80
2019-03-01T19:55:58.790Z,4.03
2019-03-01T19:58:29.945Z,3.97
2019-03-01T20:00:59.371Z,3.50
2019-03-01T20:03:30.127Z,3.33
2019-03-01T20:05:59.502Z,4.03
2019-03-01T20:08:29.605Z,3.50
2019-03-01T20:11:00.290Z,3.00
2019-03-01T20:13:31.683Z,3.30
2019-03-01T20:16:01.421Z,3.37
2019-03-01T20:18:33.022Z,4.05
2019-03-01T20:21:05.851Z,3.57
2019-03-01T20:23:33.562Z,4.30
2019-03-01T20:26:03.139Z,3.70
2019-03-01T20:28:32.621Z,3.52
2019-03-01T20:31:04.914Z,3.60
2019-03-01T20:33:33.517Z,3.47
2019-03-01T20:36:02.915Z,3.22
2019-03-01T20:38:32.279Z,4.00
2019-03-01T20:41:03.190Z,4.30
2019-03-01T20:43:33.003Z,3.50
2019-03-01T20:46:03.954Z,4.45
2019-03-01T20:48:34.676Z,3.90
2019-03-01T20:51:06.149Z,4.17
2019-03-01T20:53:35.355Z,3.80
2019-03-01T20:56:05.983Z,3.97
2019-03-01T20:58:35.771Z,3.70
2019-03-01T21:01:06.659Z,4.67
2019-03-01T21:03:36.240Z,4.72
2019-03-01T21:06:05.733Z,4.67
2019-03-01T21:08:35.136Z,4.22
2019-03-01T21:11:04.622Z,4.83
2019-03-01T21:13:34.079Z,4.50
2019-03-01T21:16:03.480Z,4.60
2019-03-01T21:18:34.879Z,4.60
2019-03-01T21:21:07.117Z,4.00
2019-03-01T21:23:39.124Z,4.17
2019-03-01T21:26:12.116Z,4.50
2019-03-01T21:28:41.901Z,4.70
2019-03-01T21:31:11.905Z,4.30
2019-03-01T21:33:41.625Z,3.77
2019-03-01T21:36:11.118Z,4.50
2019-03-01T21:38:40.540Z,4.00
2019-03-01T21:41:11.143Z,3.93
2019-03-01T21:43:41.140Z,3.93
2019-03-01T21:46:11.378Z,3.80
2019-03-01T21:48:42.552Z,4.13
2019-03-01T21:51:14.880Z,4.08
2019-03-01T21:53:43.120Z,3.83
2019-03-01T21:56:12.727Z,3.27
2019-03-01T21:58:42.840Z,4.28
2019-03-01T22:01:14.751Z,3.40
2019-03-01T22:03:45.672Z,3.60
2019-03-01T22:06:15.188Z,3.33
2019-03-01T22:08:48.652Z,3.85
2019-03-01T22:11:17.565Z,3.30
2019-03-01T22:13:46.981Z,3.02
2019-03-01T22:16:18.221Z,3.10
2019-03-01T22:18:47.919Z,3.30
2019-03-01T22:21:22.616Z,4.27
2019-03-01T22:23:51.513Z,3.10
2019-03-01T22:26:20.416Z,3.00
2019-03-01T22:28:49.842Z,2.80
2019-03-01T22:31:20.791Z,3.00
2019-03-01T22:33:52.572Z,3.07
2019-03-01T22:36:22.611Z,3.40
2019-03-01T22:38:52.038Z,3.63
2019-03-01T22:41:22.480Z,3.00
2019-03-01T22:43:51.872Z,3.67
2019-03-01T22:46:24.975Z,3.00
2019-03-01T22:48:56.616Z,3.30
2019-03-01T22:51:24.873Z,2.83
2019-03-01T22:53:54.555Z,3.20
2019-03-01T22:56:24.271Z,3.30
2019-03-01T22:58:53.712Z,3.30
2019-03-01T23:01:35.377Z,2.92
2019-03-01T23:04:06.725Z,3.03
2019-03-01T23:06:36.114Z,3.43
2019-03-01T23:09:10.737Z,3.07
2019-03-01T23:11:40.567Z,3.33
2019-03-01T23:14:09.970Z,2.73
2019-03-01T23:16:39.359Z,3.35
2019-03-01T23:19:09.190Z,3.00
2019-03-01T23:21:39.615Z,3.15
2019-03-01T23:24:09.021Z,3.53
2019-03-01T23:26:39.648Z,3.10
2019-03-01T23:29:12.255Z,3.35
2019-03-01T23:31:41.641Z,3.30
2019-03-01T23:34:11.466Z,2.90
2019-03-01T23:36:40.904Z,3.37
2019-03-01T23:39:10.486Z,3.07
2019-03-01T23:41:40.076Z,2.93
2019-03-01T23:44:10.944Z,3.03
2019-03-01T23:46:42.160Z,3.17
2019-03-01T23:49:11.612Z,3.00
2019-03-01T23:51:42.520Z,2.62
2019-03-01T23:54:14.666Z,3.10
2019-03-01T23:56:44.409Z,2.90
2019-03-01T23:59:13.808Z,2.83
